sensor_id;sensor_type;location;lat;lon;timestamp;temperature;humidity
8664;DHT22;4369;47.842;13.096;2023-02-28T00:00:45;-1.00;99.90
8664;DHT22;4369;47.842;13.096;2023-02-28T00:03:12;-1.00;99.90
8664;DHT22;4369;47.842;13.096;2023-02-28T00:05:39;-1.00;99.90
8664;DHT22;4369;47.842;13.096;2023-02-28T00:08:07;-1.00;99.90
8664;DHT22;4369;47.842;13.096;2023-02-28T00:10:35;-1.00;99.90
8664;DHT22;4369;47.842;13.096;2023-02-28T00:13:04;-1.00;99.90
8664;DHT22;4369;47.842;13.096;2023-02-28T00:15:31;-1.10;99.90
8664;DHT22;4369;47.842;13.096;2023-02-28T00:17:58;-1.10;99.90
8664;DHT22;4369;47.842;13.096;2023-02-28T00:20:25;-1.10;99.90
8664;DHT22;4369;47.842;13.096;2023-02-28T00:22:53;-1.10;99.90
8664;DHT22;4369;47.842;13.096;2023-02-28T00:25:21;-1.10;99.90
8664;DHT22;4369;47.842;13.096;2023-02-28T00:27:50;-1.10;99.90
8664;DHT22;4369;47.842;13.096;2023-02-28T00:30:18;-1.30;99.90
8664;DHT22;4369;47.842;13.096;2023-02-28T00:32:45;-1.30;99.90
8664;DHT22;4369;47.842;13.096;2023-02-28T00:35:12;-1.20;99.90
8664;DHT22;4369;47.842;13.096;2023-02-28T00:37:39;-1.30;99.90
8664;DHT22;4369;47.842;13.096;2023-02-28T00:40:07;-1.30;99.90
8664;DHT22;4369;47.842;13.096;2023-02-28T00:42:35;-1.30;99.90
8664;DHT22;4369;47.842;13.096;2023-02-28T00:45:04;-1.30;99.90
8664;DHT22;4369;47.842;13.096;2023-02-28T00:47:32;-1.40;99.90
8664;DHT22;4369;47.842;13.096;2023-02-28T00:49:59;-1.40;99.90
8664;DHT22;4369;47.842;13.096;2023-02-28T00:52:26;-1.40;99.90
8664;DHT22;4369;47.842;13.096;2023-02-28T00:54:53;-1.40;99.90
8664;DHT22;4369;47.842;13.096;2023-02-28T00:57:19;-1.40;99.90
8664;DHT22;4369;47.842;13.096;2023-02-28T00:59:46;-1.50;99.90
8664;DHT22;4369;47.842;13.096;2023-02-28T01:02:14;-1.50;99.90
8664;DHT22;4369;47.842;13.096;2023-02-28T01:04:41;-1.40;99.90
8664;DHT22;4369;47.842;13.096;2023-02-28T01:07:08;-1.50;99.90
8664;DHT22;4369;47.842;13.096;2023-02-28T01:09:35;-1.50;99.90
8664;DHT22;4369;47.842;13.096;2023-02-28T01:12:02;-1.40;99.90
8664;DHT22;4369;47.842;13.096;2023-02-28T01:14:29;-1.40;99.90
8664;DHT22;4369;47.842;13.096;2023-02-28T01:16:56;-1.40;99.90
8664;DHT22;4369;47.842;13.096;2023-02-28T01:19:24;-1.40;99.90
8664;DHT22;4369;47.842;13.096;2023-02-28T01:21:51;-1.40;99.90
8664;DHT22;4369;47.842;13.096;2023-02-28T01:24:18;-1.50;99.90
8664;DHT22;4369;47.842;13.096;2023-02-28T01:26:45;-1.50;99.90
8664;DHT22;4369;47.842;13.096;2023-02-28T01:29:11;-1.60;99.90
8664;DHT22;4369;47.842;13.096;2023-02-28T01:31:38;-1.60;99.90
8664;DHT22;4369;47.842;13.096;2023-02-28T01:34:05;-1.60;99.90
8664;DHT22;4369;47.842;13.096;2023-02-28T01:36:33;-1.60;99.90
8664;DHT22;4369;47.842;13.096;2023-02-28T01:39:00;-1.60;99.90
8664;DHT22;4369;47.842;13.096;2023-02-28T01:41:29;-1.70;99.90
8664;DHT22;4369;47.842;13.096;2023-02-28T01:44:03;-1.70;99.90
8664;DHT22;4369;47.842;13.096;2023-02-28T01:46:32;-1.70;99.90
8664;DHT22;4369;47.842;13.096;2023-02-28T01:49:04;-1.80;99.90
8664;DHT22;4369;47.842;13.096;2023-02-28T01:51:37;-1.80;99.90
8664;DHT22;4369;47.842;13.096;2023-02-28T01:54:09;-1.80;99.90
8664;DHT22;4369;47.842;13.096;2023-02-28T01:56:41;-1.80;99.90
8664;DHT22;4369;47.842;13.096;2023-02-28T01:59:09;-1.80;99.90
8664;DHT22;4369;47.842;13.096;2023-02-28T02:01:36;-1.80;99.90
8664;DHT22;4369;47.842;13.096;2023-02-28T02:04:04;-1.80;99.90
8664;DHT22;4369;47.842;13.096;2023-02-28T02:06:35;-1.80;99.90
8664;DHT22;4369;47.842;13.096;2023-02-28T02:09:03;-1.80;99.90
8664;DHT22;4369;47.842;13.096;2023-02-28T02:11:31;-1.80;99.90
8664;DHT22;4369;47.842;13.096;2023-02-28T02:14:21;-1.90;99.90
8664;DHT22;4369;47.842;13.096;2023-02-28T02:17:05;-2.00;99.90
8664;DHT22;4369;47.842;13.096;2023-02-28T02:23:09;-2.00;99.90
8664;DHT22;4369;47.842;13.096;2023-02-28T02:25:42;-2.10;99.90
8664;DHT22;4369;47.842;13.096;2023-02-28T02:28:40;-2.00;99.90
8664;DHT22;4369;47.842;13.096;2023-02-28T02:34:37;-2.00;99.90
8664;DHT22;4369;47.842;13.096;2023-02-28T02:37:13;-2.00;99.90
8664;DHT22;4369;47.842;13.096;2023-02-28T02:39:47;-2.00;99.90
8664;DHT22;4369;47.842;13.096;2023-02-28T02:42:19;-2.00;99.90
8664;DHT22;4369;47.842;13.096;2023-02-28T02:44:51;-2.00;99.90
8664;DHT22;4369;47.842;13.096;2023-02-28T02:47:25;-2.00;99.90
8664;DHT22;4369;47.842;13.096;2023-02-28T02:49:56;-2.00;99.90
8664;DHT22;4369;47.842;13.096;2023-02-28T02:52:29;-2.00;99.90
8664;DHT22;4369;47.842;13.096;2023-02-28T02:54:59;-2.00;99.90
8664;DHT22;4369;47.842;13.096;2023-02-28T02:57:31;-1.90;99.90
8664;DHT22;4369;47.842;13.096;2023-02-28T03:00:00;-1.90;99.90
8664;DHT22;4369;47.842;13.096;2023-02-28T03:02:30;-1.90;99.90
8664;DHT22;4369;47.842;13.096;2023-02-28T03:05:04;-1.90;99.90
8664;DHT22;4369;47.842;13.096;2023-02-28T03:07:32;-2.00;99.90
8664;DHT22;4369;47.842;13.096;2023-02-28T03:09:58;-1.90;99.90
8664;DHT22;4369;47.842;13.096;2023-02-28T03:12:33;-1.90;99.90
8664;DHT22;4369;47.842;13.096;2023-02-28T03:15:10;-2.00;99.90
8664;DHT22;4369;47.842;13.096;2023-02-28T03:18:01;-2.10;99.90
8664;DHT22;4369;47.842;13.096;2023-02-28T03:20:37;-2.10;99.90
8664;DHT22;4369;47.842;13.096;2023-02-28T03:23:15;-2.10;99.90
8664;DHT22;4369;47.842;13.096;2023-02-28T03:25:53;-2.10;99.90
8664;DHT22;4369;47.842;13.096;2023-02-28T03:28:28;-2.10;99.90
8664;DHT22;4369;47.842;13.096;2023-02-28T03:31:00;-2.10;99.90
8664;DHT22;4369;47.842;13.096;2023-02-28T03:33:33;-2.20;99.90
8664;DHT22;4369;47.842;13.096;2023-02-28T03:36:06;-2.30;99.90
8664;DHT22;4369;47.842;13.096;2023-02-28T03:38:38;-2.30;99.90
8664;DHT22;4369;47.842;13.096;2023-02-28T03:41:12;-2.30;99.90
8664;DHT22;4369;47.842;13.096;2023-02-28T03:43:45;-2.30;99.90
8664;DHT22;4369;47.842;13.096;2023-02-28T03:46:15;-2.30;99.90
8664;DHT22;4369;47.842;13.096;2023-02-28T03:48:51;-2.40;99.90
8664;DHT22;4369;47.842;13.096;2023-02-28T03:51:23;-2.40;99.90
8664;DHT22;4369;47.842;13.096;2023-02-28T03:53:53;-2.40;99.90
8664;DHT22;4369;47.842;13.096;2023-02-28T03:56:23;-2.50;99.90
8664;DHT22;4369;47.842;13.096;2023-02-28T03:58:57;-2.40;99.90
8664;DHT22;4369;47.842;13.096;2023-02-28T04:01:30;-2.30;99.90
8664;DHT22;4369;47.842;13.096;2023-02-28T04:03:58;-2.30;99.90
8664;DHT22;4369;47.842;13.096;2023-02-28T04:06:27;-2.20;99.90
8664;DHT22;4369;47.842;13.096;2023-02-28T04:08:56;-2.20;99.90
8664;DHT22;4369;47.842;13.096;2023-02-28T04:11:29;-2.10;99.90
8664;DHT22;4369;47.842;13.096;2023-02-28T04:13:59;-2.10;99.90
8664;DHT22;4369;47.842;13.096;2023-02-28T04:16:26;-2.20;99.90
8664;DHT22;4369;47.842;13.096;2023-02-28T04:18:53;-2.10;99.90
8664;DHT22;4369;47.842;13.096;2023-02-28T04:21:31;-2.10;99.90
8664;DHT22;4369;47.842;13.096;2023-02-28T04:23:58;-2.10;99.90
8664;DHT22;4369;47.842;13.096;2023-02-28T04:26:29;-2.10;99.90
8664;DHT22;4369;47.842;13.096;2023-02-28T04:28:56;-2.10;99.90
8664;DHT22;4369;47.842;13.096;2023-02-28T04:31:23;-2.00;99.90
8664;DHT22;4369;47.842;13.096;2023-02-28T04:33:50;-2.00;99.90
8664;DHT22;4369;47.842;13.096;2023-02-28T04:36:16;-2.00;99.90
8664;DHT22;4369;47.842;13.096;2023-02-28T04:38:46;-2.00;99.90
8664;DHT22;4369;47.842;13.096;2023-02-28T04:41:13;-2.00;99.90
8664;DHT22;4369;47.842;13.096;2023-02-28T04:43:40;-2.00;99.90
8664;DHT22;4369;47.842;13.096;2023-02-28T04:46:07;-2.10;99.90
8664;DHT22;4369;47.842;13.096;2023-02-28T04:48:36;-2.10;99.90
8664;DHT22;4369;47.842;13.096;2023-02-28T04:51:04;-2.30;99.90
8664;DHT22;4369;47.842;13.096;2023-02-28T04:53:32;-2.30;99.90
8664;DHT22;4369;47.842;13.096;2023-02-28T04:56:01;-2.30;99.90
8664;DHT22;4369;47.842;13.096;2023-02-28T04:58:28;-2.20;99.90
8664;DHT22;4369;47.842;13.096;2023-02-28T05:01:01;-2.20;99.90
8664;DHT22;4369;47.842;13.096;2023-02-28T05:03:28;-2.20;99.90
8664;DHT22;4369;47.842;13.096;2023-02-28T05:05:55;-2.20;99.90
8664;DHT22;4369;47.842;13.096;2023-02-28T05:08:22;-2.30;99.90
8664;DHT22;4369;47.842;13.096;2023-02-28T05:10:49;-2.30;99.90
8664;DHT22;4369;47.842;13.096;2023-02-28T05:13:17;-2.30;99.90
8664;DHT22;4369;47.842;13.096;2023-02-28T05:15:44;-2.20;99.90
8664;DHT22;4369;47.842;13.096;2023-02-28T05:18:11;-2.20;99.90
8664;DHT22;4369;47.842;13.096;2023-02-28T05:20:39;-2.20;99.90
8664;DHT22;4369;47.842;13.096;2023-02-28T05:23:05;-2.20;99.90
8664;DHT22;4369;47.842;13.096;2023-02-28T05:25:32;-2.20;99.90
8664;DHT22;4369;47.842;13.096;2023-02-28T05:27:59;-2.20;99.90
8664;DHT22;4369;47.842;13.096;2023-02-28T05:30:27;-2.10;99.90
8664;DHT22;4369;47.842;13.096;2023-02-28T05:32:55;-2.10;99.90
8664;DHT22;4369;47.842;13.096;2023-02-28T05:35:22;-2.20;99.90
8664;DHT22;4369;47.842;13.096;2023-02-28T05:37:49;-2.40;99.90
8664;DHT22;4369;47.842;13.096;2023-02-28T05:40:16;-2.40;99.90
8664;DHT22;4369;47.842;13.096;2023-02-28T05:42:45;-2.40;99.90
8664;DHT22;4369;47.842;13.096;2023-02-28T05:45:12;-2.40;99.90
8664;DHT22;4369;47.842;13.096;2023-02-28T05:47:40;-2.60;99.90
8664;DHT22;4369;47.842;13.096;2023-02-28T05:50:08;-2.50;99.90
8664;DHT22;4369;47.842;13.096;2023-02-28T05:52:36;-2.50;99.90
8664;DHT22;4369;47.842;13.096;2023-02-28T05:55:03;-2.60;99.90
8664;DHT22;4369;47.842;13.096;2023-02-28T05:57:30;-2.60;99.90
8664;DHT22;4369;47.842;13.096;2023-02-28T05:59:57;-2.60;99.90
8664;DHT22;4369;47.842;13.096;2023-02-28T06:02:24;-2.60;99.90
8664;DHT22;4369;47.842;13.096;2023-02-28T06:04:52;-2.60;99.90
8664;DHT22;4369;47.842;13.096;2023-02-28T06:07:19;-2.70;99.90
8664;DHT22;4369;47.842;13.096;2023-02-28T06:09:47;-2.60;99.90
8664;DHT22;4369;47.842;13.096;2023-02-28T06:12:14;-2.60;99.90
8664;DHT22;4369;47.842;13.096;2023-02-28T06:14:41;-2.50;99.90
8664;DHT22;4369;47.842;13.096;2023-02-28T06:17:08;-2.50;99.90
8664;DHT22;4369;47.842;13.096;2023-02-28T06:19:36;-2.60;99.90
8664;DHT22;4369;47.842;13.096;2023-02-28T06:22:05;-2.60;99.90
8664;DHT22;4369;47.842;13.096;2023-02-28T06:24:32;-2.60;99.90
8664;DHT22;4369;47.842;13.096;2023-02-28T06:26:59;-2.50;99.90
8664;DHT22;4369;47.842;13.096;2023-02-28T06:29:30;-2.50;99.90
8664;DHT22;4369;47.842;13.096;2023-02-28T06:31:57;-2.60;99.90
8664;DHT22;4369;47.842;13.096;2023-02-28T06:34:24;-2.50;99.90
8664;DHT22;4369;47.842;13.096;2023-02-28T06:36:51;-2.50;99.90
8664;DHT22;4369;47.842;13.096;2023-02-28T06:39:20;-2.50;99.90
8664;DHT22;4369;47.842;13.096;2023-02-28T06:41:47;-2.50;99.90
8664;DHT22;4369;47.842;13.096;2023-02-28T06:44:15;-2.50;99.90
8664;DHT22;4369;47.842;13.096;2023-02-28T06:46:44;-2.40;99.90
8664;DHT22;4369;47.842;13.096;2023-02-28T06:49:11;-2.40;99.90
8664;DHT22;4369;47.842;13.096;2023-02-28T06:51:41;-2.40;99.90
8664;DHT22;4369;47.842;13.096;2023-02-28T06:54:10;-2.40;99.90
8664;DHT22;4369;47.842;13.096;2023-02-28T06:56:39;-2.40;99.90
8664;DHT22;4369;47.842;13.096;2023-02-28T06:59:06;-2.30;99.90
8664;DHT22;4369;47.842;13.096;2023-02-28T07:01:33;-2.30;99.90
8664;DHT22;4369;47.842;13.096;2023-02-28T07:04:00;-2.30;99.90
8664;DHT22;4369;47.842;13.096;2023-02-28T07:06:27;-2.40;99.90
8664;DHT22;4369;47.842;13.096;2023-02-28T07:08:54;-2.30;99.90
8664;DHT22;4369;47.842;13.096;2023-02-28T07:11:23;-2.40;99.90
8664;DHT22;4369;47.842;13.096;2023-02-28T07:13:52;-2.50;99.90
8664;DHT22;4369;47.842;13.096;2023-02-28T07:16:19;-2.40;99.90
8664;DHT22;4369;47.842;13.096;2023-02-28T07:18:46;-2.40;99.90
8664;DHT22;4369;47.842;13.096;2023-02-28T07:21:13;-2.20;99.90
8664;DHT22;4369;47.842;13.096;2023-02-28T07:23:41;-2.10;99.90
8664;DHT22;4369;47.842;13.096;2023-02-28T07:26:11;-1.90;99.90
8664;DHT22;4369;47.842;13.096;2023-02-28T07:28:40;-1.70;99.90
8664;DHT22;4369;47.842;13.096;2023-02-28T07:31:09;-1.70;99.90
8664;DHT22;4369;47.842;13.096;2023-02-28T07:33:37;-1.50;99.90
8664;DHT22;4369;47.842;13.096;2023-02-28T07:36:06;-1.50;99.90
8664;DHT22;4369;47.842;13.096;2023-02-28T07:38:34;-1.40;99.90
8664;DHT22;4369;47.842;13.096;2023-02-28T07:41:01;-1.50;99.90
8664;DHT22;4369;47.842;13.096;2023-02-28T07:43:30;-1.40;99.90
8664;DHT22;4369;47.842;13.096;2023-02-28T07:46:02;-1.40;99.90
8664;DHT22;4369;47.842;13.096;2023-02-28T07:48:30;-1.30;99.90
8664;DHT22;4369;47.842;13.096;2023-02-28T07:50:58;-1.20;99.90
8664;DHT22;4369;47.842;13.096;2023-02-28T07:53:25;-1.10;99.90
8664;DHT22;4369;47.842;13.096;2023-02-28T07:55:55;-1.00;99.90
8664;DHT22;4369;47.842;13.096;2023-02-28T07:58:22;-0.90;99.90
8664;DHT22;4369;47.842;13.096;2023-02-28T08:00:49;-0.90;99.90
8664;DHT22;4369;47.842;13.096;2023-02-28T08:03:16;-0.70;99.90
8664;DHT22;4369;47.842;13.096;2023-02-28T08:05:45;-0.60;99.90
8664;DHT22;4369;47.842;13.096;2023-02-28T08:08:13;-0.50;99.90
8664;DHT22;4369;47.842;13.096;2023-02-28T08:10:40;-0.30;99.90
8664;DHT22;4369;47.842;13.096;2023-02-28T08:13:07;-0.30;99.90
8664;DHT22;4369;47.842;13.096;2023-02-28T08:15:34;-0.20;99.90
8664;DHT22;4369;47.842;13.096;2023-02-28T08:18:01;0.00;99.90
8664;DHT22;4369;47.842;13.096;2023-02-28T08:20:28;0.10;99.90
8664;DHT22;4369;47.842;13.096;2023-02-28T08:22:57;0.10;99.90
8664;DHT22;4369;47.842;13.096;2023-02-28T08:25:24;0.10;99.90
8664;DHT22;4369;47.842;13.096;2023-02-28T08:27:51;-0.10;99.90
8664;DHT22;4369;47.842;13.096;2023-02-28T08:30:19;0.00;99.90
8664;DHT22;4369;47.842;13.096;2023-02-28T08:32:46;0.00;99.90
8664;DHT22;4369;47.842;13.096;2023-02-28T08:35:13;0.10;99.90
8664;DHT22;4369;47.842;13.096;2023-02-28T08:37:40;0.10;99.90
8664;DHT22;4369;47.842;13.096;2023-02-28T08:40:09;0.00;99.90
8664;DHT22;4369;47.842;13.096;2023-02-28T08:42:38;0.30;99.90
8664;DHT22;4369;47.842;13.096;2023-02-28T08:45:06;0.40;99.90
8664;DHT22;4369;47.842;13.096;2023-02-28T08:47:33;0.30;99.90
8664;DHT22;4369;47.842;13.096;2023-02-28T08:50:00;0.40;99.90
8664;DHT22;4369;47.842;13.096;2023-02-28T08:52:27;0.50;99.90
8664;DHT22;4369;47.842;13.096;2023-02-28T08:54:54;0.50;99.90
8664;DHT22;4369;47.842;13.096;2023-02-28T08:57:22;0.60;99.90
8664;DHT22;4369;47.842;13.096;2023-02-28T08:59:51;0.80;99.90
8664;DHT22;4369;47.842;13.096;2023-02-28T09:02:18;0.80;99.90
8664;DHT22;4369;47.842;13.096;2023-02-28T09:04:45;1.00;99.90
8664;DHT22;4369;47.842;13.096;2023-02-28T09:07:12;1.20;99.90
8664;DHT22;4369;47.842;13.096;2023-02-28T09:09:39;1.40;99.90
8664;DHT22;4369;47.842;13.096;2023-02-28T09:12:19;1.60;99.90
8664;DHT22;4369;47.842;13.096;2023-02-28T09:14:48;1.80;99.90
8664;DHT22;4369;47.842;13.096;2023-02-28T09:17:15;2.00;99.90
8664;DHT22;4369;47.842;13.096;2023-02-28T09:19:42;2.10;99.90
8664;DHT22;4369;47.842;13.096;2023-02-28T09:22:09;2.20;99.90
8664;DHT22;4369;47.842;13.096;2023-02-28T09:24:36;2.30;99.90
8664;DHT22;4369;47.842;13.096;2023-02-28T09:27:03;2.40;99.90
8664;DHT22;4369;47.842;13.096;2023-02-28T09:29:31;2.60;99.90
8664;DHT22;4369;47.842;13.096;2023-02-28T09:32:00;2.70;99.90
8664;DHT22;4369;47.842;13.096;2023-02-28T09:34:27;3.00;99.90
8664;DHT22;4369;47.842;13.096;2023-02-28T09:36:56;3.10;99.90
8664;DHT22;4369;47.842;13.096;2023-02-28T09:39:23;3.20;99.90
8664;DHT22;4369;47.842;13.096;2023-02-28T09:41:52;3.50;99.90
8664;DHT22;4369;47.842;13.096;2023-02-28T09:44:24;3.60;99.70
8664;DHT22;4369;47.842;13.096;2023-02-28T09:46:58;3.70;99.30
8664;DHT22;4369;47.842;13.096;2023-02-28T09:49:33;4.00;98.90
8664;DHT22;4369;47.842;13.096;2023-02-28T09:52:03;4.20;98.00
8664;DHT22;4369;47.842;13.096;2023-02-28T09:54:32;4.20;96.30
8664;DHT22;4369;47.842;13.096;2023-02-28T09:57:04;4.40;96.30
8664;DHT22;4369;47.842;13.096;2023-02-28T09:59:44;4.60;95.80
8664;DHT22;4369;47.842;13.096;2023-02-28T10:02:41;4.70;94.70
8664;DHT22;4369;47.842;13.096;2023-02-28T10:05:14;4.90;95.30
8664;DHT22;4369;47.842;13.096;2023-02-28T10:07:51;5.20;93.80
8664;DHT22;4369;47.842;13.096;2023-02-28T10:10:25;5.30;92.60
8664;DHT22;4369;47.842;13.096;2023-02-28T10:12:56;5.40;92.50
8664;DHT22;4369;47.842;13.096;2023-02-28T10:15:27;5.70;91.90
8664;DHT22;4369;47.842;13.096;2023-02-28T10:18:00;5.60;91.10
8664;DHT22;4369;47.842;13.096;2023-02-28T10:20:28;5.60;91.20
8664;DHT22;4369;47.842;13.096;2023-02-28T10:23:02;5.90;90.90
8664;DHT22;4369;47.842;13.096;2023-02-28T10:25:34;6.00;90.70
8664;DHT22;4369;47.842;13.096;2023-02-28T10:28:09;6.30;88.80
8664;DHT22;4369;47.842;13.096;2023-02-28T10:30:39;6.60;86.40
8664;DHT22;4369;47.842;13.096;2023-02-28T10:33:20;6.50;85.30
8664;DHT22;4369;47.842;13.096;2023-02-28T10:35:48;6.70;85.60
8664;DHT22;4369;47.842;13.096;2023-02-28T10:38:17;6.70;83.80
8664;DHT22;4369;47.842;13.096;2023-02-28T10:40:44;6.80;82.80
8664;DHT22;4369;47.842;13.096;2023-02-28T10:43:22;7.00;82.50
8664;DHT22;4369;47.842;13.096;2023-02-28T10:46:01;6.70;80.70
8664;DHT22;4369;47.842;13.096;2023-02-28T10:48:38;7.00;81.70
8664;DHT22;4369;47.842;13.096;2023-02-28T10:51:07;7.20;80.50
8664;DHT22;4369;47.842;13.096;2023-02-28T10:53:39;7.00;78.60
8664;DHT22;4369;47.842;13.096;2023-02-28T10:56:16;6.90;79.80
8664;DHT22;4369;47.842;13.096;2023-02-28T10:58:53;7.30;79.60
8664;DHT22;4369;47.842;13.096;2023-02-28T11:01:22;7.70;78.90
8664;DHT22;4369;47.842;13.096;2023-02-28T11:03:52;7.80;76.00
8664;DHT22;4369;47.842;13.096;2023-02-28T11:06:21;7.90;75.60
8664;DHT22;4369;47.842;13.096;2023-02-28T11:08:50;7.80;74.30
8664;DHT22;4369;47.842;13.096;2023-02-28T11:11:19;8.00;75.00
8664;DHT22;4369;47.842;13.096;2023-02-28T11:13:47;8.00;74.20
8664;DHT22;4369;47.842;13.096;2023-02-28T11:16:16;8.00;74.80
8664;DHT22;4369;47.842;13.096;2023-02-28T11:18:47;8.20;74.60
8664;DHT22;4369;47.842;13.096;2023-02-28T11:21:19;8.40;72.50
8664;DHT22;4369;47.842;13.096;2023-02-28T11:23:49;8.70;70.30
8664;DHT22;4369;47.842;13.096;2023-02-28T11:26:35;8.90;68.80
8664;DHT22;4369;47.842;13.096;2023-02-28T11:29:10;8.90;67.80
8664;DHT22;4369;47.842;13.096;2023-02-28T11:31:37;9.30;67.90
8664;DHT22;4369;47.842;13.096;2023-02-28T11:34:24;9.70;66.50
8664;DHT22;4369;47.842;13.096;2023-02-28T11:36:54;10.40;64.20
8664;DHT22;4369;47.842;13.096;2023-02-28T11:39:22;11.20;62.30
8664;DHT22;4369;47.842;13.096;2023-02-28T11:42:09;12.00;59.20
8664;DHT22;4369;47.842;13.096;2023-02-28T11:44:48;13.40;56.00
8664;DHT22;4369;47.842;13.096;2023-02-28T11:47:27;15.20;51.90
8664;DHT22;4369;47.842;13.096;2023-02-28T11:50:19;16.40;45.50
8664;DHT22;4369;47.842;13.096;2023-02-28T11:52:52;19.30;39.80
8664;DHT22;4369;47.842;13.096;2023-02-28T11:55:24;21.40;35.00
8664;DHT22;4369;47.842;13.096;2023-02-28T11:58:01;23.70;31.70
8664;DHT22;4369;47.842;13.096;2023-02-28T12:00:40;26.00;29.20
8664;DHT22;4369;47.842;13.096;2023-02-28T12:03:26;27.50;26.90
8664;DHT22;4369;47.842;13.096;2023-02-28T12:06:04;28.90;25.40
8664;DHT22;4369;47.842;13.096;2023-02-28T12:08:47;29.00;23.80
8664;DHT22;4369;47.842;13.096;2023-02-28T12:11:24;32.30;22.80
8664;DHT22;4369;47.842;13.096;2023-02-28T12:14:02;32.80;21.70
8664;DHT22;4369;47.842;13.096;2023-02-28T12:16:41;35.20;20.70
8664;DHT22;4369;47.842;13.096;2023-02-28T12:19:19;37.10;19.80
8664;DHT22;4369;47.842;13.096;2023-02-28T12:22:03;38.50;18.90
8664;DHT22;4369;47.842;13.096;2023-02-28T12:27:36;36.90;17.40
8664;DHT22;4369;47.842;13.096;2023-02-28T12:30:12;37.30;18.20
8664;DHT22;4369;47.842;13.096;2023-02-28T12:32:42;38.10;17.90
8664;DHT22;4369;47.842;13.096;2023-02-28T12:35:13;39.20;17.70
8664;DHT22;4369;47.842;13.096;2023-02-28T12:37:42;38.80;17.40
8664;DHT22;4369;47.842;13.096;2023-02-28T12:40:14;39.50;16.80
8664;DHT22;4369;47.842;13.096;2023-02-28T12:42:46;39.70;16.90
8664;DHT22;4369;47.842;13.096;2023-02-28T12:45:18;39.60;16.90
8664;DHT22;4369;47.842;13.096;2023-02-28T12:47:49;40.30;16.50
8664;DHT22;4369;47.842;13.096;2023-02-28T12:50:17;39.90;16.30
8664;DHT22;4369;47.842;13.096;2023-02-28T12:52:51;39.90;16.20
8664;DHT22;4369;47.842;13.096;2023-02-28T12:55:23;40.20;16.00
8664;DHT22;4369;47.842;13.096;2023-02-28T12:58:00;39.40;16.00
8664;DHT22;4369;47.842;13.096;2023-02-28T13:00:33;38.10;17.00
8664;DHT22;4369;47.842;13.096;2023-02-28T13:06:11;34.30;17.20
8664;DHT22;4369;47.842;13.096;2023-02-28T13:09:05;34.00;18.20
8664;DHT22;4369;47.842;13.096;2023-02-28T13:11:39;35.10;17.60
8664;DHT22;4369;47.842;13.096;2023-02-28T13:14:23;34.60;18.10
8664;DHT22;4369;47.842;13.096;2023-02-28T13:16:56;35.20;17.70
8664;DHT22;4369;47.842;13.096;2023-02-28T13:19:24;34.80;17.70
8664;DHT22;4369;47.842;13.096;2023-02-28T13:21:52;33.50;18.10
8664;DHT22;4369;47.842;13.096;2023-02-28T13:24:42;33.30;18.50
8664;DHT22;4369;47.842;13.096;2023-02-28T13:27:35;32.90;18.30
8664;DHT22;4369;47.842;13.096;2023-02-28T13:33:24;32.50;18.50
8664;DHT22;4369;47.842;13.096;2023-02-28T13:36:08;30.20;19.10
8664;DHT22;4369;47.842;13.096;2023-02-28T13:38:39;26.80;20.70
8664;DHT22;4369;47.842;13.096;2023-02-28T13:41:44;24.30;22.50
8664;DHT22;4369;47.842;13.096;2023-02-28T13:44:12;22.20;24.00
8664;DHT22;4369;47.842;13.096;2023-02-28T13:49:40;19.50;26.00
8664;DHT22;4369;47.842;13.096;2023-02-28T13:52:11;18.20;26.90
8664;DHT22;4369;47.842;13.096;2023-02-28T13:54:52;17.00;27.90
8664;DHT22;4369;47.842;13.096;2023-02-28T13:57:28;15.60;29.00
8664;DHT22;4369;47.842;13.096;2023-02-28T14:00:14;15.40;30.10
8664;DHT22;4369;47.842;13.096;2023-02-28T14:02:54;15.00;30.50
8664;DHT22;4369;47.842;13.096;2023-02-28T14:05:28;14.20;31.70
8664;DHT22;4369;47.842;13.096;2023-02-28T14:07:57;13.20;33.20
8664;DHT22;4369;47.842;13.096;2023-02-28T14:10:28;12.40;34.40
8664;DHT22;4369;47.842;13.096;2023-02-28T14:13:00;11.90;35.50
8664;DHT22;4369;47.842;13.096;2023-02-28T14:18:22;11.60;37.50
8664;DHT22;4369;47.842;13.096;2023-02-28T14:20:55;11.50;37.50
8664;DHT22;4369;47.842;13.096;2023-02-28T14:23:52;11.70;37.80
8664;DHT22;4369;47.842;13.096;2023-02-28T14:26:49;11.80;37.90
8664;DHT22;4369;47.842;13.096;2023-02-28T14:29:33;12.10;38.00
8664;DHT22;4369;47.842;13.096;2023-02-28T14:32:10;12.40;38.00
8664;DHT22;4369;47.842;13.096;2023-02-28T14:34:45;12.40;37.80
8664;DHT22;4369;47.842;13.096;2023-02-28T14:37:20;12.00;38.50
8664;DHT22;4369;47.842;13.096;2023-02-28T14:39:50;11.60;39.20
8664;DHT22;4369;47.842;13.096;2023-02-28T14:42:28;11.30;40.00
8664;DHT22;4369;47.842;13.096;2023-02-28T14:44:55;10.80;40.40
8664;DHT22;4369;47.842;13.096;2023-02-28T14:47:24;10.60;41.60
8664;DHT22;4369;47.842;13.096;2023-02-28T14:49:51;10.50;42.30
8664;DHT22;4369;47.842;13.096;2023-02-28T14:52:22;10.20;43.30
8664;DHT22;4369;47.842;13.096;2023-02-28T14:54:53;9.90;43.90
8664;DHT22;4369;47.842;13.096;2023-02-28T14:57:23;9.70;45.20
8664;DHT22;4369;47.842;13.096;2023-02-28T15:00:00;9.30;46.40
8664;DHT22;4369;47.842;13.096;2023-02-28T15:02:31;8.90;47.80
8664;DHT22;4369;47.842;13.096;2023-02-28T15:05:00;8.80;48.60
8664;DHT22;4369;47.842;13.096;2023-02-28T15:07:28;8.90;49.30
8664;DHT22;4369;47.842;13.096;2023-02-28T15:10:16;8.80;49.50
8664;DHT22;4369;47.842;13.096;2023-02-28T15:12:50;8.60;49.80
8664;DHT22;4369;47.842;13.096;2023-02-28T15:15:18;8.50;50.90
8664;DHT22;4369;47.842;13.096;2023-02-28T15:17:49;8.50;51.10
8664;DHT22;4369;47.842;13.096;2023-02-28T15:20:18;8.40;51.50
8664;DHT22;4369;47.842;13.096;2023-02-28T15:22:48;8.20;51.90
8664;DHT22;4369;47.842;13.096;2023-02-28T15:25:19;8.00;53.20
8664;DHT22;4369;47.842;13.096;2023-02-28T15:27:48;7.90;53.70
8664;DHT22;4369;47.842;13.096;2023-02-28T15:30:17;7.90;55.00
8664;DHT22;4369;47.842;13.096;2023-02-28T15:33:02;8.00;54.90
8664;DHT22;4369;47.842;13.096;2023-02-28T15:35:31;7.90;55.00
8664;DHT22;4369;47.842;13.096;2023-02-28T15:38:01;7.30;56.00
8664;DHT22;4369;47.842;13.096;2023-02-28T15:40:31;7.30;57.40
8664;DHT22;4369;47.842;13.096;2023-02-28T15:43:00;7.10;58.20
8664;DHT22;4369;47.842;13.096;2023-02-28T15:45:34;7.10;58.70
8664;DHT22;4369;47.842;13.096;2023-02-28T15:48:04;7.20;59.00
8664;DHT22;4369;47.842;13.096;2023-02-28T15:50:32;6.90;59.30
8664;DHT22;4369;47.842;13.096;2023-02-28T15:53:01;6.60;60.30
8664;DHT22;4369;47.842;13.096;2023-02-28T15:55:29;6.40;62.70
8664;DHT22;4369;47.842;13.096;2023-02-28T15:58:00;6.30;64.50
8664;DHT22;4369;47.842;13.096;2023-02-28T16:00:29;6.10;66.70
8664;DHT22;4369;47.842;13.096;2023-02-28T16:02:58;5.90;68.30
8664;DHT22;4369;47.842;13.096;2023-02-28T16:05:26;5.60;71.90
8664;DHT22;4369;47.842;13.096;2023-02-28T16:08:00;5.50;75.90
8664;DHT22;4369;47.842;13.096;2023-02-28T16:10:29;5.50;78.10
8664;DHT22;4369;47.842;13.096;2023-02-28T16:12:56;5.40;80.80
8664;DHT22;4369;47.842;13.096;2023-02-28T16:15:25;5.40;82.50
8664;DHT22;4369;47.842;13.096;2023-02-28T16:17:53;5.30;83.40
8664;DHT22;4369;47.842;13.096;2023-02-28T16:20:23;5.00;84.70
8664;DHT22;4369;47.842;13.096;2023-02-28T16:22:50;4.90;89.20
8664;DHT22;4369;47.842;13.096;2023-02-28T16:25:21;4.90;91.40
8664;DHT22;4369;47.842;13.096;2023-02-28T16:27:51;4.80;92.50
8664;DHT22;4369;47.842;13.096;2023-02-28T16:30:22;4.80;92.20
8664;DHT22;4369;47.842;13.096;2023-02-28T16:32:49;4.80;92.80
8664;DHT22;4369;47.842;13.096;2023-02-28T16:35:17;4.80;93.70